createdAt,value
2022-10-12T00:01:18.839Z,47.00
2022-10-12T00:03:47.730Z,47.12
2022-10-12T00:06:23.011Z,47.23
2022-10-12T00:08:53.219Z,47.23
2022-10-12T00:11:28.570Z,46.96
2022-10-12T00:13:58.018Z,47.05
2022-10-12T00:16:26.649Z,47.24
2022-10-12T00:18:56.692Z,47.29
2022-10-12T00:21:26.430Z,47.06
2022-10-12T00:23:58.912Z,47.09
2022-10-12T00:26:28.219Z,47.30
2022-10-12T00:29:00.116Z,47.01
2022-10-12T00:31:29.241Z,47.22
2022-10-12T00:34:02.020Z,47.11
2022-10-12T00:36:32.811Z,47.15
2022-10-12T00:39:01.792Z,47.17
2022-10-12T00:41:35.268Z,47.18
2022-10-12T00:44:04.389Z,47.03
2022-10-12T00:46:51.311Z,47.12
2022-10-12T00:49:23.549Z,47.19
2022-10-12T00:51:55.948Z,47.18
2022-10-12T00:54:30.585Z,47.12
2022-10-12T00:56:59.324Z,47.39
2022-10-12T00:59:32.954Z,47.21
2022-10-12T01:02:01.604Z,47.07
2022-10-12T01:04:32.233Z,47.25
2022-10-12T01:07:01.138Z,47.08
2022-10-12T01:09:30.322Z,47.12
2022-10-12T01:12:00.729Z,47.09
2022-10-12T01:14:29.503Z,47.02
2022-10-12T01:17:04.858Z,46.99
2022-10-12T01:20:04.900Z,47.13
2022-10-12T01:22:37.258Z,47.10
2022-10-12T01:25:50.688Z,46.87
2022-10-12T01:28:41.788Z,47.10
2022-10-12T01:31:52.491Z,47.07
2022-10-12T01:34:42.451Z,46.84
2022-10-12T01:37:53.591Z,46.88
2022-10-12T01:40:30.312Z,46.85
2022-10-12T01:42:59.090Z,46.95
2022-10-12T01:45:27.715Z,46.90
2022-10-12T01:47:56.512Z,46.91
2022-10-12T01:50:32.312Z,46.88
2022-10-12T01:53:48.884Z,46.98
2022-10-12T01:56:40.328Z,46.74
2022-10-12T02:00:04.641Z,46.72
2022-10-12T02:03:03.401Z,46.73
2022-10-12T02:06:04.481Z,46.73
2022-10-12T02:09:10.050Z,46.65
2022-10-12T02:11:39.383Z,46.83
2022-10-12T02:14:41.461Z,46.67
2022-10-12T02:17:12.949Z,46.66
2022-10-12T02:19:45.667Z,46.63
2022-10-12T02:22:14.639Z,46.73
2022-10-12T02:24:46.070Z,46.57
2022-10-12T02:27:15.267Z,46.54
2022-10-12T02:29:45.065Z,46.65
2022-10-12T02:33:12.194Z,46.49
2022-10-12T02:36:06.503Z,46.57
2022-10-12T02:38:38.533Z,46.41
2022-10-12T02:41:13.404Z,46.43
2022-10-12T02:43:49.527Z,46.57
2022-10-12T02:46:18.086Z,46.65
2022-10-12T02:48:47.363Z,46.73
2022-10-12T02:51:15.933Z,46.59
2022-10-12T02:53:45.546Z,46.75
2022-10-12T02:56:15.687Z,46.53
2022-10-12T02:58:44.784Z,46.52
2022-10-12T03:01:13.649Z,46.74
2022-10-12T03:03:43.775Z,46.83
2022-10-12T03:06:12.474Z,46.74
2022-10-12T03:08:41.007Z,46.74
2022-10-12T03:11:12.406Z,46.69
2022-10-12T03:13:40.919Z,46.75
2022-10-12T03:16:11.214Z,46.84
2022-10-12T03:18:40.313Z,46.87
2022-10-12T03:21:08.874Z,46.63
2022-10-12T03:23:37.989Z,46.90
2022-10-12T03:26:07.262Z,46.92
2022-10-12T03:28:35.928Z,46.78
2022-10-12T03:31:04.625Z,46.70
2022-10-12T03:33:33.275Z,46.70
2022-10-12T03:36:02.024Z,46.58
2022-10-12T03:38:31.085Z,46.71
2022-10-12T03:41:04.199Z,46.83
2022-10-12T03:43:35.136Z,46.64
2022-10-12T03:46:04.046Z,46.81
2022-10-12T03:48:32.767Z,46.64
2022-10-12T03:51:01.556Z,46.78
2022-10-12T03:53:31.271Z,46.80
2022-10-12T03:56:00.749Z,46.56
2022-10-12T03:58:29.257Z,46.72
2022-10-12T04:00:58.289Z,46.74
2022-10-12T04:03:26.837Z,46.88
2022-10-12T04:05:56.606Z,46.87
2022-10-12T04:08:27.227Z,46.81
2022-10-12T04:10:55.697Z,46.94
2022-10-12T04:13:24.378Z,46.74
2022-10-12T04:15:53.133Z,46.63
2022-10-12T04:18:21.706Z,46.72
2022-10-12T04:20:50.298Z,46.69
2022-10-12T04:23:18.999Z,46.54
2022-10-12T04:25:47.515Z,46.70
2022-10-12T04:28:15.975Z,46.89
2022-10-12T04:30:45.864Z,46.78
2022-10-12T04:33:14.336Z,46.71
2022-10-12T04:35:43.134Z,46.73
2022-10-12T04:38:13.498Z,46.84
2022-10-12T04:40:46.630Z,46.82
2022-10-12T04:43:16.016Z,47.01
2022-10-12T04:45:44.890Z,46.81
2022-10-12T04:48:13.886Z,46.93
2022-10-12T04:50:43.457Z,46.64
2022-10-12T04:53:11.958Z,46.59
2022-10-12T04:55:41.346Z,46.59
2022-10-12T04:58:09.863Z,46.85
2022-10-12T05:00:38.648Z,46.54
2022-10-12T05:03:07.209Z,46.81
2022-10-12T05:05:36.507Z,46.74
2022-10-12T05:08:05.607Z,46.70
2022-10-12T05:10:34.089Z,46.83
2022-10-12T05:13:02.778Z,46.72
2022-10-12T05:15:31.278Z,46.55
2022-10-12T05:17:59.959Z,46.55
2022-10-12T05:20:28.464Z,46.43
2022-10-12T05:23:00.023Z,46.51
2022-10-12T05:25:30.125Z,46.57
2022-10-12T05:27:58.873Z,46.51
2022-10-12T05:30:27.914Z,46.72
2022-10-12T05:32:56.675Z,46.67
2022-10-12T05:35:25.273Z,46.57
2022-10-12T05:37:54.003Z,46.68
2022-10-12T05:40:22.494Z,46.80
2022-10-12T05:42:51.514Z,46.87
2022-10-12T05:45:20.044Z,47.26
2022-10-12T05:47:48.687Z,47.10
2022-10-12T05:50:17.314Z,47.52
2022-10-12T05:52:46.113Z,47.28
2022-10-12T05:55:14.783Z,47.10
2022-10-12T05:57:46.305Z,47.28
2022-10-12T06:00:17.294Z,47.03
2022-10-12T06:02:46.647Z,47.25
2022-10-12T06:05:15.480Z,47.30
2022-10-12T06:07:44.229Z,47.46
2022-10-12T06:10:13.049Z,47.53
2022-10-12T06:12:44.243Z,47.40
2022-10-12T06:15:13.587Z,47.44
2022-10-12T06:17:42.319Z,47.31
2022-10-12T06:20:11.583Z,47.47
2022-10-12T06:22:41.028Z,47.44
2022-10-12T06:25:09.860Z,47.58
2022-10-12T06:27:38.293Z,47.59
2022-10-12T06:30:07.511Z,47.68
2022-10-12T06:32:36.180Z,47.77
2022-10-12T06:35:05.669Z,47.67
2022-10-12T06:37:50.547Z,47.40
2022-10-12T06:40:19.866Z,47.51
2022-10-12T06:42:51.170Z,47.44
2022-10-12T06:45:21.344Z,47.40
2022-10-12T06:47:49.685Z,47.31
2022-10-12T06:50:18.808Z,47.36
2022-10-12T06:52:48.945Z,47.37
2022-10-12T06:55:17.685Z,47.28
2022-10-12T06:57:46.281Z,47.19
2022-10-12T07:00:15.553Z,47.28
2022-10-12T07:02:44.054Z,47.34
2022-10-12T07:05:12.874Z,47.30
2022-10-12T07:07:41.443Z,47.33
2022-10-12T07:10:10.355Z,47.31
2022-10-12T07:12:39.409Z,47.36
2022-10-12T07:15:09.208Z,47.31
2022-10-12T07:17:38.069Z,47.52
2022-10-12T07:20:07.915Z,47.63
2022-10-12T07:22:36.543Z,47.50
2022-10-12T07:25:06.025Z,47.59
2022-10-12T07:27:34.503Z,47.69
2022-10-12T07:30:03.388Z,47.80
2022-10-12T07:32:31.858Z,47.60
2022-10-12T07:35:00.496Z,47.73
2022-10-12T07:37:28.965Z,47.80
2022-10-12T07:39:57.827Z,47.75
2022-10-12T07:42:26.616Z,47.73
2022-10-12T07:44:55.176Z,47.73
2022-10-12T07:47:24.087Z,47.57
2022-10-12T07:49:52.756Z,47.57
2022-10-12T07:52:21.744Z,47.49
2022-10-12T07:54:50.426Z,47.54
2022-10-12T07:57:19.285Z,47.50
2022-10-12T07:59:47.937Z,47.48
2022-10-12T08:02:16.629Z,47.51
2022-10-12T08:04:45.783Z,47.32
2022-10-12T08:07:14.797Z,47.31
2022-10-12T08:09:43.498Z,47.32
2022-10-12T08:12:12.387Z,47.13
2022-10-12T08:14:41.078Z,47.09
2022-10-12T08:17:10.170Z,47.25
2022-10-12T08:19:38.794Z,47.21
2022-10-12T08:22:07.726Z,47.21
2022-10-12T08:24:37.186Z,47.02
2022-10-12T08:27:06.026Z,47.14
2022-10-12T08:29:34.619Z,47.21
2022-10-12T08:32:04.376Z,47.06
2022-10-12T08:34:33.479Z,47.05
2022-10-12T08:37:02.292Z,46.93
2022-10-12T08:39:31.049Z,46.98
2022-10-12T08:42:32.705Z,46.76
2022-10-12T08:45:32.320Z,46.72
2022-10-12T08:48:40.769Z,46.67
2022-10-12T08:51:16.706Z,46.43
2022-10-12T08:54:08.251Z,46.62
2022-10-12T08:56:39.736Z,46.25
2022-10-12T08:59:18.486Z,45.96
2022-10-12T09:02:01.301Z,45.86
2022-10-12T09:04:51.026Z,45.63
2022-10-12T09:07:32.773Z,45.48
2022-10-12T09:10:14.567Z,45.62
2022-10-12T09:12:58.344Z,45.36
2022-10-12T09:15:58.689Z,45.44
2022-10-12T09:18:41.827Z,45.23
2022-10-12T09:21:23.535Z,45.40
2022-10-12T09:23:52.455Z,45.20
2022-10-12T09:26:39.710Z,45.11
2022-10-12T09:29:35.120Z,44.96
2022-10-12T09:32:23.851Z,44.93
2022-10-12T09:34:52.399Z,44.93
2022-10-12T09:37:28.529Z,44.55
2022-10-12T09:39:57.719Z,44.00
2022-10-12T09:42:26.724Z,44.03
2022-10-12T09:45:17.627Z,42.86
2022-10-12T09:48:13.656Z,42.64
2022-10-12T09:50:58.941Z,42.10
2022-10-12T09:53:43.857Z,42.29
2022-10-12T09:56:26.880Z,41.83
2022-10-12T09:59:01.744Z,41.58
2022-10-12T10:01:37.382Z,41.25
2022-10-12T10:04:24.955Z,40.79
2022-10-12T10:06:53.818Z,40.91
2022-10-12T10:09:34.989Z,40.70
2022-10-12T10:12:27.086Z,40.42
2022-10-12T10:14:57.132Z,40.54
2022-10-12T10:17:33.993Z,40.86
2022-10-12T10:20:05.600Z,40.70
2022-10-12T10:22:34.159Z,40.20
2022-10-12T10:25:03.154Z,40.45
2022-10-12T10:27:38.216Z,40.47
2022-10-12T10:30:33.849Z,40.25
2022-10-12T10:33:18.701Z,40.30
2022-10-12T10:36:22.784Z,40.66
2022-10-12T10:39:06.033Z,40.79
2022-10-12T10:41:42.591Z,40.70
2022-10-12T10:44:32.099Z,40.63
2022-10-12T10:47:10.484Z,40.82
2022-10-12T10:49:45.617Z,41.03
2022-10-12T10:52:32.221Z,41.07
2022-10-12T10:55:43.025Z,41.02
2022-10-12T10:58:23.682Z,41.11
2022-10-12T11:00:56.541Z,41.34
2022-10-12T11:03:57.305Z,41.69
2022-10-12T11:06:45.552Z,41.91
2022-10-12T11:09:26.092Z,42.00
2022-10-12T11:12:19.455Z,42.23
2022-10-12T11:14:56.026Z,41.80
2022-10-12T11:17:38.743Z,41.91
2022-10-12T11:20:47.322Z,41.97
2022-10-12T11:23:29.880Z,41.75
2022-10-12T11:26:22.072Z,41.59
2022-10-12T11:28:51.442Z,41.26
2022-10-12T11:31:36.822Z,41.43
2022-10-12T11:34:13.709Z,41.47
2022-10-12T11:37:07.477Z,41.48
2022-10-12T11:39:42.246Z,41.13
2022-10-12T11:42:21.952Z,40.90
2022-10-12T11:44:51.211Z,40.47
2022-10-12T11:47:39.867Z,39.64
2022-10-12T11:50:32.686Z,39.79
2022-10-12T11:53:02.840Z,39.39
2022-10-12T11:55:52.504Z,40.00
2022-10-12T11:58:48.897Z,40.20
2022-10-12T12:01:55.166Z,39.72
2022-10-12T12:04:42.286Z,39.45
2022-10-12T12:07:38.700Z,39.82
2022-10-12T12:10:35.223Z,39.12
2022-10-12T12:13:18.141Z,38.75
2022-10-12T12:15:52.729Z,38.13
2022-10-12T12:18:33.736Z,38.29
2022-10-12T12:21:11.624Z,38.62
2022-10-12T12:23:52.865Z,38.93
2022-10-12T12:26:30.764Z,39.21
2022-10-12T12:29:26.447Z,39.17
2022-10-12T12:31:59.337Z,39.28
2022-10-12T12:34:27.976Z,39.59
2022-10-12T12:36:58.609Z,39.87
2022-10-12T12:39:32.106Z,39.50
2022-10-12T12:42:08.116Z,38.95
2022-10-12T12:44:42.780Z,38.77
2022-10-12T12:47:40.261Z,39.02
2022-10-12T12:50:22.496Z,39.14
2022-10-12T12:52:51.165Z,39.16
2022-10-12T12:55:45.506Z,38.98
2022-10-12T12:58:55.805Z,39.33
2022-10-12T13:02:15.919Z,39.20
2022-10-12T13:05:09.599Z,39.13
2022-10-12T13:07:53.333Z,39.27
2022-10-12T13:10:34.186Z,39.17
2022-10-12T13:13:38.980Z,39.03
2022-10-12T13:19:22.357Z,38.80
2022-10-12T13:21:52.822Z,39.02
2022-10-12T13:24:51.725Z,39.43
2022-10-12T13:27:46.919Z,39.22
2022-10-12T13:30:39.674Z,39.13
2022-10-12T13:33:14.406Z,39.05
2022-10-12T13:36:17.202Z,39.01
2022-10-12T13:38:46.071Z,39.09
2022-10-12T13:41:16.846Z,39.26
2022-10-12T13:43:49.181Z,39.39
2022-10-12T13:46:49.327Z,39.58
2022-10-12T13:49:33.118Z,39.55
2022-10-12T13:52:12.522Z,39.86
2022-10-12T13:54:47.799Z,39.85
2022-10-12T13:57:43.717Z,39.76
2022-10-12T14:00:25.659Z,40.10
2022-10-12T14:02:56.511Z,40.12
2022-10-12T14:05:27.738Z,39.99
2022-10-12T14:08:03.895Z,40.17
2022-10-12T14:10:38.710Z,40.34
2022-10-12T14:13:09.771Z,40.32
2022-10-12T14:15:40.661Z,40.47
2022-10-12T14:18:32.137Z,40.32
2022-10-12T14:21:23.993Z,40.52
2022-10-12T14:23:54.995Z,40.53
2022-10-12T14:26:42.055Z,40.42
2022-10-12T14:29:39.801Z,40.67
2022-10-12T14:32:41.665Z,40.54
2022-10-12T14:35:29.542Z,40.80
2022-10-12T14:37:59.353Z,40.62
2022-10-12T14:40:31.543Z,40.71
2022-10-12T14:43:13.662Z,40.97
2022-10-12T14:45:43.414Z,40.89
2022-10-12T14:48:23.360Z,40.89
2022-10-12T14:50:54.242Z,40.91
2022-10-12T14:53:29.605Z,40.93
2022-10-12T14:55:58.291Z,41.08
2022-10-12T14:58:27.285Z,41.02
2022-10-12T15:00:55.974Z,40.99
2022-10-12T15:03:24.872Z,40.94
2022-10-12T15:05:53.483Z,40.93
2022-10-12T15:08:22.276Z,41.03
2022-10-12T15:10:51.244Z,41.02
2022-10-12T15:13:19.982Z,41.02
2022-10-12T15:15:48.736Z,41.16
2022-10-12T15:18:17.549Z,41.04
2022-10-12T15:20:49.376Z,41.04
2022-10-12T15:23:18.805Z,41.19
2022-10-12T15:25:55.212Z,41.08
2022-10-12T15:28:24.499Z,41.28
2022-10-12T15:31:16.080Z,41.32
2022-10-12T15:33:42.455Z,41.25
2022-10-12T15:36:11.204Z,41.24
2022-10-12T15:38:40.163Z,41.42
2022-10-12T15:41:19.601Z,41.22
2022-10-12T15:43:48.542Z,41.38
2022-10-12T15:46:17.281Z,41.31
2022-10-12T15:48:46.032Z,41.32
2022-10-12T15:51:23.602Z,41.39
2022-10-12T15:53:53.814Z,41.38
2022-10-12T15:56:22.673Z,41.25
2022-10-12T15:58:51.548Z,41.52
2022-10-12T16:01:20.587Z,41.58
2022-10-12T16:03:49.662Z,41.59
2022-10-12T16:06:20.733Z,41.66
2022-10-12T16:08:49.583Z,41.42
2022-10-12T16:11:18.781Z,41.49
2022-10-12T16:13:55.419Z,41.65
2022-10-12T16:16:25.440Z,41.44
2022-10-12T16:18:54.470Z,41.42
2022-10-12T16:21:23.011Z,41.96
2022-10-12T16:23:51.551Z,41.53
2022-10-12T16:26:20.371Z,41.62
2022-10-12T16:28:49.001Z,41.70
2022-10-12T16:31:18.576Z,41.63
2022-10-12T16:33:47.151Z,41.70
2022-10-12T16:36:17.139Z,41.58
2022-10-12T16:38:45.740Z,41.68
2022-10-12T16:41:16.570Z,41.70
2022-10-12T16:43:45.524Z,41.76
2022-10-12T16:46:14.217Z,41.86
2022-10-12T16:48:44.358Z,41.93
2022-10-12T16:51:13.499Z,41.96
2022-10-12T16:53:42.629Z,41.96
2022-10-12T16:56:11.670Z,41.93
2022-10-12T16:58:40.215Z,41.91
2022-10-12T17:01:12.867Z,42.11
2022-10-12T17:03:41.758Z,42.21
2022-10-12T17:06:11.050Z,42.15
2022-10-12T17:08:39.650Z,41.91
2022-10-12T17:11:10.518Z,41.48
2022-10-12T17:13:41.560Z,41.67
2022-10-12T17:16:33.101Z,41.43
2022-10-12T17:19:01.634Z,41.62
2022-10-12T17:21:30.460Z,41.59
2022-10-12T17:23:59.743Z,41.55
2022-10-12T17:26:28.553Z,41.73
2022-10-12T17:28:57.076Z,41.38
2022-10-12T17:31:26.422Z,41.65
2022-10-12T17:33:54.878Z,41.90
2022-10-12T17:36:28.013Z,41.81
2022-10-12T17:38:58.545Z,41.89
2022-10-12T17:41:28.321Z,42.13
2022-10-12T17:43:58.057Z,42.02
2022-10-12T17:46:26.958Z,42.20
2022-10-12T17:48:56.448Z,42.22
2022-10-12T17:51:25.287Z,42.28
2022-10-12T17:53:53.943Z,42.15
2022-10-12T17:56:23.143Z,42.28
2022-10-12T17:59:00.783Z,42.34
2022-10-12T18:01:30.379Z,42.50
2022-10-12T18:04:03.528Z,42.47
2022-10-12T18:06:33.893Z,42.44
2022-10-12T18:09:03.003Z,42.41
2022-10-12T18:11:31.618Z,42.81
2022-10-12T18:14:00.312Z,42.78
2022-10-12T18:16:33.679Z,42.98
2022-10-12T18:19:02.874Z,42.89
2022-10-12T18:21:32.521Z,43.04
2022-10-12T18:24:16.665Z,42.80
2022-10-12T18:26:47.132Z,43.02
2022-10-12T18:29:19.295Z,43.14
2022-10-12T18:31:48.171Z,43.30
2022-10-12T18:34:17.120Z,43.50
2022-10-12T18:36:45.951Z,43.63
2022-10-12T18:39:15.694Z,43.83
2022-10-12T18:46:43.182Z,44.39
2022-10-12T18:49:11.911Z,44.77
2022-10-12T18:51:43.807Z,44.89
2022-10-12T18:54:13.239Z,44.88
2022-10-12T18:56:43.162Z,44.95
2022-10-12T18:59:12.623Z,45.33
2022-10-12T19:01:41.417Z,45.00
2022-10-12T19:04:09.872Z,45.26
2022-10-12T19:06:42.381Z,45.51
2022-10-12T19:09:14.598Z,45.37
2022-10-12T19:11:43.711Z,45.56
2022-10-12T19:14:15.118Z,45.52
2022-10-12T19:16:44.913Z,45.59
2022-10-12T19:19:20.915Z,45.77
